Poniatowski, Wisconsin
Current Conditions -  °F | °C
As of 3:35 AM on Saturday 25 Oct 2014 (Local Time) from KCWA Reporting Station
Haze Haze  
Wind Chill: 52°   Ceiling: 800
Heat Index: 52°   Visibility: 5mi
Dew Point: 52°   Wind: 10mph
Humidity: 100%   Direction: 270°W
Pressure: 29.86"   Gusts: NA
Location:  44.8973°N, 90.0113°W
Report Text: KCWA 250835Z AUTO 27009KT 5SM BR BKN008 11/11 A2986 RMK AO2
Loading
Personal Weather Stations






























Interactive Weather Map
Tropical Storm Tracking
New forecast layout! Learn more

10-Day Weather Forecast

Advertisements
Track Severe Weather on mobile